createdAt,value
2018-04-07T00:03:39.345Z,88.50
2018-04-07T00:09:44.481Z,86.60
2018-04-07T00:15:48.801Z,86.60
2018-04-07T00:21:53.138Z,89.10
2018-04-07T00:27:57.473Z,90.00
2018-04-07T00:34:01.793Z,90.30
2018-04-07T00:40:06.140Z,90.60
2018-04-07T00:46:10.491Z,91.10
2018-04-07T00:52:14.809Z,91.50
2018-04-07T00:58:19.149Z,91.10
2018-04-07T01:04:23.486Z,89.50
2018-04-07T01:10:28.620Z,89.00
2018-04-07T01:16:32.957Z,89.00
2018-04-07T01:22:37.285Z,89.30
2018-04-07T01:28:41.609Z,90.00
2018-04-07T01:34:45.971Z,89.50
2018-04-07T01:40:50.328Z,89.40
2018-04-07T01:46:54.646Z,89.80
2018-04-07T01:52:58.976Z,88.90
2018-04-07T01:59:03.305Z,89.40
2018-04-07T02:05:07.631Z,89.60
2018-04-07T02:11:11.965Z,88.40
2018-04-07T02:17:16.292Z,88.00
2018-04-07T02:23:21.389Z,89.30
2018-04-07T02:29:25.718Z,89.30
2018-04-07T02:35:30.069Z,90.20
2018-04-07T02:41:34.427Z,90.60
2018-04-07T02:47:38.748Z,90.80
2018-04-07T02:53:43.130Z,91.40
2018-04-07T02:59:47.450Z,91.40
2018-04-07T03:05:51.808Z,91.70
2018-04-07T03:11:56.153Z,91.50
2018-04-07T03:18:00.485Z,91.30
2018-04-07T03:24:04.839Z,91.60
2018-04-07T03:30:09.944Z,92.00
2018-04-07T03:36:14.301Z,92.00
2018-04-07T03:42:18.635Z,92.00
2018-04-07T03:48:22.970Z,92.30
2018-04-07T03:54:27.345Z,92.60
2018-04-07T04:00:31.666Z,92.50
2018-04-07T04:06:35.985Z,92.20
2018-04-07T04:12:40.318Z,92.00
2018-04-07T04:18:45.009Z,91.50
2018-04-07T04:24:49.342Z,90.60
2018-04-07T04:30:53.684Z,90.50
2018-04-07T04:36:58.036Z,90.40
2018-04-07T04:43:02.377Z,90.60
2018-04-07T04:49:06.711Z,90.80
2018-04-07T04:55:11.041Z,91.00
2018-04-07T05:01:15.364Z,90.70
2018-04-07T05:07:19.706Z,90.30
2018-04-07T05:13:24.029Z,91.00
2018-04-07T05:19:28.356Z,91.60
2018-04-07T05:25:32.689Z,90.70
2018-04-07T05:31:37.808Z,88.40
2018-04-07T05:37:42.135Z,88.40
2018-04-07T05:43:46.484Z,85.20
2018-04-07T05:49:50.811Z,84.10
2018-04-07T05:55:55.135Z,84.20
2018-04-07T06:01:59.478Z,84.60
2018-04-07T06:08:03.807Z,84.60
2018-04-07T06:14:08.122Z,83.60
2018-04-07T06:20:13.214Z,81.80
2018-04-07T06:26:17.532Z,81.80
2018-04-07T06:32:21.880Z,82.10
2018-04-07T06:38:26.226Z,80.30
2018-04-07T06:44:30.549Z,80.20
2018-04-07T06:50:35.650Z,75.60
2018-04-07T06:56:39.994Z,75.50
2018-04-07T07:02:44.343Z,57.70
2018-04-07T07:08:48.687Z,45.00
2018-04-07T07:14:53.041Z,39.00
2018-04-07T07:20:57.405Z,36.60
2018-04-07T07:27:02.520Z,47.60
2018-04-07T07:33:07.796Z,47.60
2018-04-07T07:39:12.133Z,53.80
2018-04-07T07:45:16.481Z,57.30
2018-04-07T07:51:20.825Z,55.30
2018-04-07T07:57:25.241Z,54.80
2018-04-07T08:03:29.575Z,53.70
2018-04-07T08:09:33.924Z,55.30
2018-04-07T08:15:38.281Z,56.30
2018-04-07T08:21:42.685Z,50.50
2018-04-07T08:27:47.012Z,48.80
2018-04-07T08:33:51.348Z,51.60
2018-04-07T08:39:55.702Z,50.80
2018-04-07T08:46:00.042Z,47.90
2018-04-07T08:52:04.391Z,46.00
2018-04-07T08:58:08.733Z,46.70
2018-04-07T09:04:13.074Z,46.20
2018-04-07T09:10:17.405Z,46.70
2018-04-07T09:16:21.749Z,43.00
2018-04-07T09:22:26.110Z,43.70
2018-04-07T09:28:30.881Z,41.90
2018-04-07T09:34:35.206Z,42.10
2018-04-07T09:40:39.568Z,39.60
2018-04-07T09:46:43.919Z,36.10
2018-04-07T09:52:48.258Z,32.70
2018-04-07T09:58:52.632Z,34.10
2018-04-07T10:04:56.969Z,34.40
2018-04-07T10:11:01.319Z,32.70
2018-04-07T10:17:06.637Z,30.70
2018-04-07T10:23:10.995Z,30.00
2018-04-07T10:29:16.091Z,28.60
2018-04-07T10:35:20.440Z,28.60
2018-04-07T10:41:24.768Z,28.90
2018-04-07T10:47:29.142Z,28.40
2018-04-07T10:53:33.487Z,28.00
2018-04-07T10:59:37.834Z,28.40
2018-04-07T11:05:42.169Z,26.70
2018-04-07T11:11:46.518Z,26.90
2018-04-07T11:17:50.858Z,27.00
2018-04-07T11:23:55.203Z,27.20
2018-04-07T11:29:59.587Z,26.20
2018-04-07T11:36:04.701Z,26.10
2018-04-07T11:42:09.041Z,26.10
2018-04-07T11:48:13.399Z,25.60
2018-04-07T11:54:18.578Z,24.10
2018-04-07T12:00:23.699Z,26.40
2018-04-07T12:06:28.041Z,26.40
2018-04-07T12:12:32.390Z,25.10
2018-04-07T12:18:36.715Z,25.20
2018-04-07T12:24:41.057Z,23.50
2018-04-07T12:30:45.406Z,24.20
2018-04-07T12:36:49.744Z,23.50
2018-04-07T12:42:54.132Z,22.90
2018-04-07T12:48:59.218Z,25.10
2018-04-07T12:55:03.574Z,25.10
2018-04-07T13:01:07.959Z,24.80
2018-04-07T13:07:13.062Z,24.80
2018-04-07T13:13:17.406Z,24.70
2018-04-07T13:19:21.745Z,24.80
2018-04-07T13:25:26.089Z,22.90
2018-04-07T13:31:30.460Z,23.10
2018-04-07T13:37:34.826Z,21.90
2018-04-07T13:43:39.163Z,22.10
2018-04-07T13:49:44.269Z,21.90
2018-04-07T13:55:48.613Z,21.90
2018-04-07T14:01:52.958Z,22.80
2018-04-07T14:07:57.316Z,21.80
2018-04-07T14:14:01.647Z,22.10
2018-04-07T14:20:05.997Z,21.20
2018-04-07T14:26:10.342Z,21.20
2018-04-07T14:32:14.697Z,20.40
2018-04-07T14:38:19.802Z,21.70
2018-04-07T14:44:24.133Z,21.70
2018-04-07T14:50:28.488Z,20.80
2018-04-07T14:56:32.852Z,20.40
2018-04-07T15:02:37.198Z,20.30
2018-04-07T15:08:41.533Z,20.50
2018-04-07T15:14:45.876Z,20.90
2018-04-07T15:20:50.239Z,20.50
2018-04-07T15:26:55.342Z,19.80
2018-04-07T15:32:59.695Z,19.70
2018-04-07T15:39:04.044Z,20.80
2018-04-07T15:45:08.439Z,19.30
2018-04-07T15:51:13.668Z,20.80
2018-04-07T15:57:18.043Z,20.70
2018-04-07T16:03:23.222Z,21.40
2018-04-07T16:09:27.651Z,21.30
2018-04-07T16:15:32.825Z,20.50
2018-04-07T16:21:37.214Z,20.40
2018-04-07T16:27:41.550Z,21.10
2018-04-07T16:33:45.907Z,21.00
2018-04-07T16:39:51.037Z,20.00
2018-04-07T16:45:55.394Z,20.00
2018-04-07T16:51:59.739Z,20.90
2018-04-07T16:58:04.077Z,20.80
2018-04-07T17:04:08.409Z,20.70
2018-04-07T17:10:13.259Z,22.20
2018-04-07T17:16:17.594Z,22.60
2018-04-07T17:22:21.934Z,25.00
2018-04-07T17:28:26.289Z,26.10
2018-04-07T17:34:30.629Z,27.70
2018-04-07T17:40:34.997Z,29.10
2018-04-07T17:46:40.105Z,31.60
2018-04-07T17:52:44.455Z,31.50
2018-04-07T17:58:48.811Z,33.20
2018-04-07T18:04:54.106Z,35.50
2018-04-07T18:10:58.449Z,37.10
2018-04-07T18:17:02.797Z,37.60
2018-04-07T18:23:07.147Z,37.80
2018-04-07T18:29:11.485Z,39.00
2018-04-07T18:35:15.865Z,40.40
2018-04-07T18:41:20.226Z,42.30
2018-04-07T18:47:24.569Z,43.70
2018-04-07T18:53:28.935Z,45.10
2018-04-07T18:59:33.298Z,48.30
2018-04-07T19:05:37.703Z,50.40
2018-04-07T19:11:42.821Z,59.30
2018-04-07T19:17:47.182Z,59.20
2018-04-07T19:23:51.534Z,66.60
2018-04-07T19:29:55.886Z,72.20
2018-04-07T19:36:01.031Z,77.00
2018-04-07T19:42:05.377Z,76.80
2018-04-07T19:48:09.725Z,77.40
2018-04-07T19:54:14.829Z,78.00
2018-04-07T20:00:19.190Z,78.00
2018-04-07T20:06:23.570Z,78.10
2018-04-07T20:12:28.707Z,78.80
2018-04-07T20:18:33.063Z,78.70
2018-04-07T20:24:38.182Z,80.20
2018-04-07T20:30:42.554Z,80.10
2018-04-07T20:36:46.906Z,80.00
2018-04-07T20:42:52.053Z,77.70
2018-04-07T20:48:56.407Z,77.70
2018-04-07T20:55:00.769Z,77.60
2018-04-07T21:01:05.128Z,77.80
2018-04-07T21:07:09.482Z,78.60
2018-04-07T21:13:13.845Z,79.30
2018-04-07T21:19:18.214Z,80.20
2018-04-07T21:25:22.573Z,81.20
2018-04-07T21:31:26.918Z,83.10
2018-04-07T21:37:31.279Z,83.70
2018-04-07T21:43:35.622Z,84.60
2018-04-07T21:49:39.970Z,84.70
2018-04-07T21:55:44.311Z,86.70
2018-04-07T22:01:48.720Z,87.70
2018-04-07T22:07:53.082Z,87.90
2018-04-07T22:13:57.424Z,89.30
2018-04-07T22:20:01.786Z,90.50
2018-04-07T22:26:06.159Z,90.70
2018-04-07T22:32:11.283Z,91.40
2018-04-07T22:38:15.627Z,91.40
2018-04-07T22:44:19.991Z,91.70
2018-04-07T22:50:24.368Z,92.30
2018-04-07T22:56:28.720Z,92.40
2018-04-07T23:02:33.071Z,92.30
2018-04-07T23:08:37.408Z,92.50
2018-04-07T23:14:41.770Z,92.50
2018-04-07T23:20:46.135Z,93.10
2018-04-07T23:26:50.465Z,93.20
2018-04-07T23:32:54.823Z,93.10
2018-04-07T23:38:59.178Z,93.30
2018-04-07T23:45:03.545Z,93.40
2018-04-07T23:51:07.900Z,93.70
2018-04-07T23:57:12.259Z,93.70
